createdAt,value
2023-01-29T00:01:16.835Z,102802.56
2023-01-29T00:03:52.363Z,102800.28
2023-01-29T00:06:24.881Z,102805.97
2023-01-29T00:08:57.527Z,102813.66
2023-01-29T00:11:31.310Z,102797.66
2023-01-29T00:14:04.210Z,102786.84
2023-01-29T00:16:37.071Z,102782.25
2023-01-29T00:19:09.692Z,102788.44
2023-01-29T00:21:42.289Z,102788.09
2023-01-29T00:24:14.859Z,102784.38
2023-01-29T00:26:50.057Z,102775.97
2023-01-29T00:29:22.665Z,102773.75
2023-01-29T00:31:55.454Z,102765.25
2023-01-29T00:34:28.084Z,102771.63
2023-01-29T00:37:04.580Z,102777.88
2023-01-29T00:39:47.952Z,102771.88
2023-01-29T00:42:39.359Z,102776.66
2023-01-29T00:45:12.982Z,102760.63
2023-01-29T00:47:45.648Z,102762.94
2023-01-29T00:50:18.857Z,102756.88
2023-01-29T00:52:52.863Z,102753.53
2023-01-29T00:55:25.451Z,102746.66
2023-01-29T00:57:58.034Z,102742.00
2023-01-29T01:00:30.676Z,102736.63
2023-01-29T01:03:06.543Z,102732.03
2023-01-29T01:05:39.229Z,102728.81
2023-01-29T01:08:30.452Z,102733.09
2023-01-29T01:11:06.318Z,102734.88
2023-01-29T01:13:38.866Z,102732.72
2023-01-29T01:16:17.133Z,102738.19
2023-01-29T01:18:49.693Z,102735.88
2023-01-29T01:21:22.265Z,102737.59
2023-01-29T01:23:54.826Z,102737.59
2023-01-29T01:26:27.579Z,102744.19
2023-01-29T01:29:00.198Z,102733.81
2023-01-29T01:31:32.881Z,102738.19
2023-01-29T01:34:05.447Z,102747.06
2023-01-29T01:36:37.936Z,102739.19
2023-01-29T01:39:10.575Z,102741.41
2023-01-29T01:41:43.167Z,102749.59
2023-01-29T01:44:53.411Z,102734.50
2023-01-29T01:47:40.540Z,102743.63
2023-01-29T01:50:17.635Z,102746.44
2023-01-29T01:52:59.438Z,102738.19
2023-01-29T01:55:35.318Z,102740.53
2023-01-29T01:58:19.204Z,102740.94
2023-01-29T02:00:52.528Z,102748.34
2023-01-29T02:03:49.914Z,102752.06
2023-01-29T02:06:41.387Z,102749.78
2023-01-29T02:09:38.843Z,102751.56
2023-01-29T02:12:14.598Z,102747.19
2023-01-29T02:14:48.053Z,102750.38
2023-01-29T02:17:20.773Z,102749.97
2023-01-29T02:20:15.660Z,102747.59
2023-01-29T02:22:59.076Z,102759.25
2023-01-29T02:26:15.465Z,102758.44
2023-01-29T02:29:21.474Z,102755.44
2023-01-29T02:32:21.854Z,102759.22
2023-01-29T02:35:32.049Z,102770.88
2023-01-29T02:38:36.410Z,102766.16
2023-01-29T02:41:35.002Z,102756.63
2023-01-29T02:44:42.415Z,102761.94
2023-01-29T02:47:48.704Z,102750.88
2023-01-29T02:50:43.273Z,102751.03
2023-01-29T02:53:27.329Z,102751.47
2023-01-29T02:56:22.350Z,102743.06
2023-01-29T02:59:03.139Z,102739.13
2023-01-29T03:02:02.386Z,102738.25
2023-01-29T03:04:45.713Z,102741.13
2023-01-29T03:07:44.247Z,102746.94
2023-01-29T03:10:30.910Z,102747.13
2023-01-29T03:13:14.841Z,102748.81
2023-01-29T03:16:01.415Z,102740.94
2023-01-29T03:18:51.857Z,102742.09
2023-01-29T03:21:55.102Z,102736.53
2023-01-29T03:24:54.736Z,102745.69
2023-01-29T03:27:55.187Z,102742.69
2023-01-29T03:30:51.350Z,102738.38
2023-01-29T03:33:32.235Z,102743.44
2023-01-29T03:36:20.005Z,102733.88
2023-01-29T03:38:53.108Z,102724.28
2023-01-29T03:41:36.747Z,102735.84
2023-01-29T03:44:53.203Z,102736.47
2023-01-29T03:47:48.437Z,102733.84
2023-01-29T03:50:59.588Z,102730.50
2023-01-29T03:54:05.263Z,102722.78
2023-01-29T03:56:59.824Z,102713.69
2023-01-29T03:59:55.459Z,102711.66
2023-01-29T04:02:38.957Z,102715.78
2023-01-29T04:05:19.607Z,102715.34
2023-01-29T04:08:05.192Z,102707.19
2023-01-29T04:10:42.395Z,102702.78
2023-01-29T04:13:17.865Z,102703.88
2023-01-29T04:15:58.052Z,102706.88
2023-01-29T04:18:30.752Z,102689.72
2023-01-29T04:21:07.280Z,102693.59
2023-01-29T04:23:39.955Z,102688.31
2023-01-29T04:26:24.539Z,102688.84
2023-01-29T04:29:41.648Z,102684.50
2023-01-29T04:32:32.424Z,102685.88
2023-01-29T04:35:39.653Z,102696.41
2023-01-29T04:38:28.245Z,102695.81
2023-01-29T04:41:39.941Z,102686.78
2023-01-29T04:44:52.194Z,102689.97
2023-01-29T04:47:39.892Z,102682.94
2023-01-29T04:50:21.969Z,102670.97
2023-01-29T04:53:07.550Z,102668.47
2023-01-29T04:55:51.512Z,102658.06
2023-01-29T04:58:52.902Z,102655.19
2023-01-29T05:01:33.171Z,102650.63
2023-01-29T05:04:14.037Z,102646.66
2023-01-29T05:06:48.794Z,102634.34
2023-01-29T05:09:23.558Z,102651.47
2023-01-29T05:11:56.990Z,102646.97
2023-01-29T05:14:34.605Z,102644.22
2023-01-29T05:17:16.069Z,102645.25
2023-01-29T05:19:49.144Z,102640.59
2023-01-29T05:22:23.255Z,102638.59
2023-01-29T05:24:55.763Z,102632.06
2023-01-29T05:27:54.847Z,102618.88
2023-01-29T05:30:27.807Z,102632.78
2023-01-29T05:33:00.476Z,102623.00
2023-01-29T05:35:33.919Z,102621.19
2023-01-29T05:38:06.467Z,102621.31
2023-01-29T05:40:39.358Z,102616.88
2023-01-29T05:43:22.340Z,102622.75
2023-01-29T05:45:57.137Z,102623.38
2023-01-29T05:48:31.416Z,102623.00
2023-01-29T05:51:05.196Z,102622.88
2023-01-29T05:53:37.836Z,102630.16
2023-01-29T05:56:10.567Z,102629.63
2023-01-29T05:58:43.105Z,102633.84
2023-01-29T06:01:20.678Z,102637.53
2023-01-29T06:03:53.349Z,102637.97
2023-01-29T06:06:25.947Z,102640.66
2023-01-29T06:08:58.548Z,102641.94
2023-01-29T06:11:31.178Z,102641.78
2023-01-29T06:14:03.706Z,102643.78
2023-01-29T06:16:36.351Z,102643.13
2023-01-29T06:19:09.004Z,102635.59
2023-01-29T06:21:41.629Z,102653.84
2023-01-29T06:24:14.436Z,102659.59
2023-01-29T06:26:47.262Z,102663.84
2023-01-29T06:29:19.830Z,102669.06
2023-01-29T06:31:52.439Z,102665.13
2023-01-29T06:34:25.024Z,102661.91
2023-01-29T06:36:57.684Z,102639.63
2023-01-29T06:39:30.327Z,102617.25
2023-01-29T06:42:02.974Z,102614.50
2023-01-29T06:44:38.254Z,102607.66
2023-01-29T06:47:10.779Z,102617.88
2023-01-29T06:49:44.699Z,102623.38
2023-01-29T06:52:17.309Z,102617.66
2023-01-29T06:54:49.865Z,102619.72
2023-01-29T06:57:23.872Z,102622.63
2023-01-29T06:59:56.438Z,102609.75
2023-01-29T07:02:29.480Z,102600.13
2023-01-29T07:05:02.090Z,102603.09
2023-01-29T07:07:36.982Z,102601.56
2023-01-29T07:10:10.407Z,102609.16
2023-01-29T07:12:42.988Z,102602.69
2023-01-29T07:15:20.225Z,102605.13
2023-01-29T07:18:05.494Z,102600.13
2023-01-29T07:20:40.418Z,102607.81
2023-01-29T07:23:14.249Z,102616.41
2023-01-29T07:25:49.773Z,102618.53
2023-01-29T07:28:22.546Z,102615.84
2023-01-29T07:31:00.358Z,102612.97
2023-01-29T07:33:33.612Z,102619.88
2023-01-29T07:36:11.338Z,102624.56
2023-01-29T07:38:44.086Z,102612.16
2023-01-29T07:41:16.968Z,102605.56
2023-01-29T07:43:49.486Z,102605.28
2023-01-29T07:46:22.166Z,102593.13
2023-01-29T07:48:54.817Z,102595.44
2023-01-29T07:51:27.425Z,102607.00
2023-01-29T07:54:00.034Z,102613.63
2023-01-29T07:56:32.653Z,102616.28
2023-01-29T07:59:05.177Z,102614.81
2023-01-29T08:01:37.804Z,102606.31
2023-01-29T08:04:10.378Z,102599.63
2023-01-29T08:06:42.924Z,102596.25
2023-01-29T08:09:15.454Z,102600.78
2023-01-29T08:11:47.981Z,102601.41
2023-01-29T08:14:20.560Z,102603.25
2023-01-29T08:16:53.207Z,102600.94
2023-01-29T08:19:25.787Z,102596.44
2023-01-29T08:21:58.328Z,102596.25
2023-01-29T08:24:41.616Z,102598.97
2023-01-29T08:27:23.425Z,102592.84
2023-01-29T08:29:55.951Z,102596.44
2023-01-29T08:32:28.443Z,102586.00
2023-01-29T08:35:01.046Z,102583.78
2023-01-29T08:37:33.659Z,102581.25
2023-01-29T08:40:09.448Z,102579.25
2023-01-29T08:42:42.044Z,102581.84
2023-01-29T08:45:14.669Z,102573.41
2023-01-29T08:47:49.427Z,102565.59
2023-01-29T08:50:22.206Z,102561.00
2023-01-29T08:52:59.257Z,102562.59
2023-01-29T08:55:31.781Z,102559.38
2023-01-29T08:58:06.157Z,102566.22
2023-01-29T09:00:39.353Z,102567.19
2023-01-29T09:03:12.608Z,102579.03
2023-01-29T09:05:46.737Z,102572.97
2023-01-29T09:08:19.409Z,102565.84
2023-01-29T09:10:51.942Z,102573.44
2023-01-29T09:13:24.550Z,102569.25
2023-01-29T09:16:01.602Z,102581.28
2023-01-29T09:18:34.204Z,102566.50
2023-01-29T09:21:06.792Z,102566.16
2023-01-29T09:23:39.362Z,102559.50
2023-01-29T09:26:11.882Z,102556.56
2023-01-29T09:28:44.473Z,102549.06
2023-01-29T09:31:17.006Z,102555.41
2023-01-29T09:33:49.695Z,102556.75
2023-01-29T09:36:22.211Z,102548.56
2023-01-29T09:38:54.968Z,102554.88
2023-01-29T09:42:01.787Z,102556.97
2023-01-29T09:44:49.578Z,102553.41
2023-01-29T09:47:27.025Z,102550.50
2023-01-29T09:50:13.562Z,102554.50
2023-01-29T09:53:02.440Z,102552.13
2023-01-29T09:55:49.412Z,102545.91
2023-01-29T09:58:37.128Z,102551.38
2023-01-29T10:01:16.776Z,102543.13
2023-01-29T10:04:01.354Z,102548.94
2023-01-29T10:07:17.177Z,102551.56
2023-01-29T10:10:06.522Z,102557.97
2023-01-29T10:13:06.787Z,102552.88
2023-01-29T10:16:20.174Z,102564.00
2023-01-29T10:19:30.063Z,102563.22
2023-01-29T10:22:35.416Z,102554.38
2023-01-29T10:25:18.286Z,102555.84
2023-01-29T10:27:56.323Z,102549.09
2023-01-29T10:30:45.711Z,102551.66
2023-01-29T10:33:39.076Z,102547.41
2023-01-29T10:36:49.635Z,102551.91
2023-01-29T10:39:25.396Z,102544.56
2023-01-29T10:42:26.729Z,102541.59
2023-01-29T10:45:33.168Z,102538.44
2023-01-29T10:48:34.103Z,102539.84
2023-01-29T10:51:46.707Z,102534.13
2023-01-29T10:54:37.971Z,102525.59
2023-01-29T10:57:58.547Z,102536.25
2023-01-29T11:00:39.421Z,102535.66
2023-01-29T11:06:28.555Z,102514.41
2023-01-29T11:09:25.586Z,102510.88
2023-01-29T11:12:06.106Z,102504.81
2023-01-29T11:14:56.931Z,102502.63
2023-01-29T11:17:29.585Z,102488.97
2023-01-29T11:20:02.172Z,102486.91
2023-01-29T11:22:35.297Z,102479.97
2023-01-29T11:25:17.778Z,102473.31
2023-01-29T11:27:57.216Z,102468.03
2023-01-29T11:30:39.713Z,102461.91
2023-01-29T11:33:21.788Z,102451.06
2023-01-29T11:35:55.691Z,102453.06
2023-01-29T11:38:30.589Z,102450.53
2023-01-29T11:41:18.818Z,102438.47
2023-01-29T11:43:51.295Z,102444.97
2023-01-29T11:46:23.929Z,102435.19
2023-01-29T11:48:59.482Z,102424.75
2023-01-29T11:51:41.711Z,102417.69
2023-01-29T11:54:20.470Z,102410.69
2023-01-29T11:56:53.557Z,102412.59
2023-01-29T11:59:48.868Z,102401.31
2023-01-29T12:02:28.045Z,102384.31
2023-01-29T12:05:14.758Z,102369.09
2023-01-29T12:07:53.217Z,102363.03
2023-01-29T12:10:41.707Z,102352.66
2023-01-29T12:13:15.810Z,102351.25
2023-01-29T12:15:49.338Z,102348.50
2023-01-29T12:18:37.633Z,102347.50
2023-01-29T12:21:38.540Z,102336.13
2023-01-29T12:24:41.406Z,102336.75
2023-01-29T12:27:35.489Z,102333.59
2023-01-29T12:30:30.531Z,102338.53
2023-01-29T12:33:41.055Z,102340.53
2023-01-29T12:36:31.480Z,102335.28
2023-01-29T12:39:04.714Z,102331.13
2023-01-29T12:41:57.824Z,102318.66
2023-01-29T12:44:43.516Z,102311.03
2023-01-29T12:47:39.800Z,102315.41
2023-01-29T12:50:26.416Z,102311.72
2023-01-29T12:53:29.532Z,102313.88
2023-01-29T12:56:32.661Z,102303.94
2023-01-29T12:59:22.416Z,102305.41
2023-01-29T13:02:21.928Z,102298.09
2023-01-29T13:05:47.209Z,102290.81
2023-01-29T13:08:29.424Z,102289.47
2023-01-29T13:11:11.962Z,102275.88
2023-01-29T13:14:03.333Z,102284.88
2023-01-29T13:16:45.999Z,102268.94
2023-01-29T13:19:33.055Z,102273.59
2023-01-29T13:22:36.463Z,102277.03
2023-01-29T13:25:17.390Z,102276.50
2023-01-29T13:27:50.627Z,102275.78
2023-01-29T13:30:29.997Z,102258.38
2023-01-29T13:33:09.842Z,102254.00
2023-01-29T13:35:46.270Z,102251.28
2023-01-29T13:38:29.652Z,102237.84
2023-01-29T13:41:06.378Z,102236.13
2023-01-29T13:43:43.604Z,102232.69
2023-01-29T13:46:21.432Z,102228.97
2023-01-29T13:49:00.896Z,102226.19
2023-01-29T13:51:36.705Z,102229.75
2023-01-29T13:54:24.372Z,102224.91
2023-01-29T13:57:01.718Z,102228.72
2023-01-29T13:59:55.289Z,102230.16
2023-01-29T14:02:30.087Z,102226.72
2023-01-29T14:05:31.124Z,102224.13
2023-01-29T14:08:26.867Z,102232.81
2023-01-29T14:11:17.811Z,102220.09
2023-01-29T14:13:52.272Z,102213.09
2023-01-29T14:16:24.760Z,102204.81
2023-01-29T14:19:02.729Z,102199.97
2023-01-29T14:21:37.672Z,102203.28
2023-01-29T14:24:24.664Z,102201.56
2023-01-29T14:26:58.125Z,102202.44
2023-01-29T14:29:40.880Z,102200.84
2023-01-29T14:32:25.059Z,102199.19
2023-01-29T14:35:03.941Z,102198.28
2023-01-29T14:37:41.430Z,102197.59
2023-01-29T14:40:20.282Z,102195.16
2023-01-29T14:43:19.815Z,102193.44
2023-01-29T14:45:52.460Z,102189.00
2023-01-29T14:48:45.748Z,102192.38
2023-01-29T14:51:20.576Z,102183.22
2023-01-29T14:54:04.764Z,102185.25
2023-01-29T14:56:49.125Z,102174.44
2023-01-29T14:59:59.705Z,102189.00
2023-01-29T15:02:45.536Z,102173.09
2023-01-29T15:05:24.666Z,102179.13
2023-01-29T15:08:30.003Z,102185.00
2023-01-29T15:11:35.576Z,102177.47
2023-01-29T15:14:24.484Z,102168.03
2023-01-29T15:17:09.003Z,102164.72
2023-01-29T15:19:48.103Z,102157.81
2023-01-29T15:22:24.979Z,102165.00
2023-01-29T15:25:07.210Z,102162.19
2023-01-29T15:27:45.515Z,102154.09
2023-01-29T15:30:26.317Z,102154.91
2023-01-29T15:33:00.670Z,102153.56
2023-01-29T15:35:39.687Z,102148.28
2023-01-29T15:38:19.869Z,102146.69
2023-01-29T15:41:02.596Z,102145.28
2023-01-29T15:43:48.583Z,102152.72
2023-01-29T15:46:35.507Z,102140.31
2023-01-29T15:49:20.995Z,102143.53
2023-01-29T15:52:00.845Z,102137.94
2023-01-29T15:54:35.695Z,102124.59
2023-01-29T15:57:21.241Z,102103.50
2023-01-29T15:59:57.704Z,102111.63
2023-01-29T16:02:41.843Z,102103.44
2023-01-29T16:05:23.735Z,102105.00
2023-01-29T16:07:57.831Z,102114.09
2023-01-29T16:10:32.524Z,102115.59
2023-01-29T16:13:05.280Z,102116.19
2023-01-29T16:15:56.374Z,102105.72
2023-01-29T16:18:34.509Z,102105.63
2023-01-29T16:21:30.630Z,102107.63
2023-01-29T16:24:13.379Z,102099.16
2023-01-29T16:26:49.778Z,102097.31
2023-01-29T16:29:24.654Z,102085.44
2023-01-29T16:32:01.830Z,102078.28
2023-01-29T16:34:40.010Z,102081.75
2023-01-29T16:37:27.826Z,102078.84
2023-01-29T16:40:00.510Z,102089.22
2023-01-29T16:42:34.187Z,102083.78
2023-01-29T16:45:27.891Z,102081.56
2023-01-29T16:48:22.759Z,102084.31
2023-01-29T16:51:12.299Z,102077.16
2023-01-29T16:54:18.248Z,102073.81
2023-01-29T16:57:00.458Z,102069.41
2023-01-29T16:59:38.228Z,102070.81
2023-01-29T17:02:28.484Z,102066.19
2023-01-29T17:08:00.210Z,102072.91
2023-01-29T17:10:33.797Z,102072.88
2023-01-29T17:13:10.168Z,102072.03
2023-01-29T17:15:45.615Z,102064.84
2023-01-29T17:18:22.110Z,102067.72
2023-01-29T17:20:54.996Z,102055.59
2023-01-29T17:23:28.120Z,102053.53
2023-01-29T17:26:00.711Z,102050.09
2023-01-29T17:28:33.842Z,102052.78
2023-01-29T17:31:07.876Z,102055.81
2023-01-29T17:33:43.498Z,102056.75
2023-01-29T17:36:18.019Z,102051.41
2023-01-29T17:38:50.567Z,102048.81
2023-01-29T17:41:28.405Z,102046.09
2023-01-29T17:44:00.924Z,102049.75
2023-01-29T17:46:33.563Z,102039.56
2023-01-29T17:49:29.870Z,102049.44
2023-01-29T17:52:02.383Z,102039.88
2023-01-29T17:54:35.285Z,102044.50
2023-01-29T17:57:13.845Z,102035.97
2023-01-29T17:59:46.809Z,102043.13
2023-01-29T18:02:29.519Z,102036.66
2023-01-29T18:05:02.497Z,102036.72
2023-01-29T18:07:37.962Z,102038.19
2023-01-29T18:10:19.364Z,102025.31
2023-01-29T18:12:51.965Z,102017.06
2023-01-29T18:15:24.449Z,102028.41
2023-01-29T18:17:58.204Z,102023.97
2023-01-29T18:20:36.598Z,102032.25
2023-01-29T18:23:09.165Z,102034.16
2023-01-29T18:25:43.108Z,102019.63
2023-01-29T18:28:17.695Z,102023.78
2023-01-29T18:30:50.898Z,102026.41
2023-01-29T18:33:24.221Z,102016.41
2023-01-29T18:35:57.315Z,102007.47
2023-01-29T18:38:29.835Z,102008.47
2023-01-29T18:41:10.528Z,102004.72
2023-01-29T18:43:44.103Z,102002.97
2023-01-29T18:46:18.858Z,101995.84
2023-01-29T18:48:51.397Z,101982.88
2023-01-29T18:51:23.919Z,101977.50
2023-01-29T18:53:56.514Z,101964.88
2023-01-29T18:56:29.151Z,101974.81
2023-01-29T18:59:01.642Z,101954.47
2023-01-29T19:01:34.175Z,101958.94
2023-01-29T19:04:06.915Z,101969.19
2023-01-29T19:06:39.583Z,101975.75
2023-01-29T19:09:12.105Z,101967.56
2023-01-29T19:11:44.648Z,101954.19
2023-01-29T19:14:17.227Z,101960.09
2023-01-29T19:16:50.555Z,101947.41
2023-01-29T19:19:23.174Z,101949.16
2023-01-29T19:21:55.860Z,101934.41
2023-01-29T19:24:28.463Z,101927.63
2023-01-29T19:27:01.976Z,101917.06
2023-01-29T19:29:34.813Z,101917.00
2023-01-29T19:32:08.896Z,101894.69
2023-01-29T19:34:41.503Z,101900.75
2023-01-29T19:37:14.495Z,101895.38
2023-01-29T19:39:47.365Z,101903.50
2023-01-29T19:42:21.010Z,101898.25
2023-01-29T19:44:53.536Z,101884.44
2023-01-29T19:47:26.202Z,101862.78
2023-01-29T19:49:58.749Z,101867.19
2023-01-29T19:52:51.388Z,101860.28
2023-01-29T19:55:24.495Z,101856.38
2023-01-29T19:57:58.696Z,101856.34
2023-01-29T20:00:31.547Z,101838.06
2023-01-29T20:03:04.095Z,101831.94
2023-01-29T20:05:38.756Z,101825.31
2023-01-29T20:08:11.328Z,101837.44
2023-01-29T20:10:48.706Z,101833.81
2023-01-29T20:13:21.509Z,101838.25
2023-01-29T20:15:56.124Z,101851.75
2023-01-29T20:18:29.476Z,101854.47
2023-01-29T20:21:09.314Z,101851.59
2023-01-29T20:23:44.894Z,101853.09
2023-01-29T20:26:19.755Z,101857.59
2023-01-29T20:28:52.373Z,101856.00
2023-01-29T20:31:25.297Z,101840.09
2023-01-29T20:33:58.126Z,101841.97
2023-01-29T20:36:30.645Z,101850.56
2023-01-29T20:39:03.611Z,101851.47
2023-01-29T20:41:37.130Z,101851.09
2023-01-29T20:44:09.660Z,101851.38
2023-01-29T20:46:42.497Z,101844.06
2023-01-29T20:49:17.151Z,101833.19
2023-01-29T20:51:49.703Z,101820.66
2023-01-29T20:54:22.385Z,101830.13
2023-01-29T20:56:55.484Z,101818.81
2023-01-29T20:59:29.267Z,101825.66
2023-01-29T21:02:01.990Z,101830.59
2023-01-29T21:04:34.637Z,101831.31
2023-01-29T21:07:07.227Z,101834.59
2023-01-29T21:09:39.867Z,101826.69
2023-01-29T21:12:12.943Z,101824.28
2023-01-29T21:14:46.049Z,101825.84
2023-01-29T21:17:18.613Z,101832.97
2023-01-29T21:19:51.262Z,101839.84
2023-01-29T21:22:24.218Z,101842.72
2023-01-29T21:24:57.349Z,101834.78
2023-01-29T21:27:29.844Z,101848.69
2023-01-29T21:30:02.311Z,101839.09
2023-01-29T21:32:34.908Z,101842.19
2023-01-29T21:35:08.138Z,101817.38
2023-01-29T21:37:41.580Z,101826.09
2023-01-29T21:40:14.756Z,101822.78
2023-01-29T21:43:07.215Z,101808.13
2023-01-29T21:45:41.377Z,101821.00
2023-01-29T21:48:14.090Z,101806.44
2023-01-29T21:50:48.595Z,101816.00
2023-01-29T21:53:21.266Z,101804.72
2023-01-29T21:56:00.709Z,101810.97
2023-01-29T21:58:33.471Z,101829.88
2023-01-29T22:01:35.106Z,101819.72
2023-01-29T22:03:59.812Z,101831.72
2023-01-29T22:06:32.825Z,101832.50
2023-01-29T22:09:05.366Z,101820.47
2023-01-29T22:11:38.248Z,101806.44
2023-01-29T22:14:12.092Z,101779.78
2023-01-29T22:16:45.796Z,101761.88
2023-01-29T22:19:18.481Z,101777.91
2023-01-29T22:21:54.236Z,101775.28
2023-01-29T22:24:26.787Z,101757.94
2023-01-29T22:26:59.309Z,101729.13
2023-01-29T22:29:31.847Z,101702.00
2023-01-29T22:32:06.213Z,101691.22
2023-01-29T22:34:38.759Z,101657.38
2023-01-29T22:37:11.270Z,101675.56
2023-01-29T22:39:43.767Z,101690.59
2023-01-29T22:42:20.367Z,101709.78
2023-01-29T22:44:52.908Z,101731.91
2023-01-29T22:47:25.423Z,101715.41
2023-01-29T22:49:58.023Z,101717.13
2023-01-29T22:52:38.297Z,101716.88
2023-01-29T22:55:12.954Z,101707.38
2023-01-29T22:57:50.012Z,101703.19
2023-01-29T23:00:22.851Z,101704.22
2023-01-29T23:02:55.383Z,101712.75
2023-01-29T23:05:27.947Z,101703.03
2023-01-29T23:08:01.072Z,101700.69
2023-01-29T23:10:33.734Z,101699.13
2023-01-29T23:13:06.347Z,101695.44
2023-01-29T23:15:38.947Z,101670.94
2023-01-29T23:18:11.651Z,101638.69
2023-01-29T23:20:44.242Z,101629.97
2023-01-29T23:23:16.805Z,101642.25
2023-01-29T23:26:07.962Z,101659.72
2023-01-29T23:28:40.517Z,101683.50
2023-01-29T23:31:13.312Z,101667.84
2023-01-29T23:33:45.904Z,101660.13
2023-01-29T23:36:18.477Z,101653.09
2023-01-29T23:38:51.024Z,101643.53
2023-01-29T23:41:23.676Z,101639.00
2023-01-29T23:43:56.235Z,101641.75
2023-01-29T23:46:28.866Z,101631.25
2023-01-29T23:49:01.599Z,101627.88
2023-01-29T23:51:34.168Z,101618.38
2023-01-29T23:54:06.972Z,101615.84
2023-01-29T23:56:39.714Z,101616.75
2023-01-29T23:59:12.887Z,101611.53
